createdAt,value
2022-10-01T00:00:11.294Z,7.90
2022-10-01T00:03:05.519Z,7.87
2022-10-01T00:05:32.801Z,7.86
2022-10-01T00:08:07.335Z,7.87
2022-10-01T00:10:41.738Z,7.85
2022-10-01T00:13:20.292Z,7.86
2022-10-01T00:15:59.864Z,7.88
2022-10-01T00:18:30.450Z,7.88
2022-10-01T00:20:57.409Z,7.89
2022-10-01T00:23:27.434Z,7.87
2022-10-01T00:25:54.946Z,7.86
2022-10-01T00:28:25.159Z,7.85
2022-10-01T00:31:00.943Z,7.83
2022-10-01T00:33:30.227Z,7.82
2022-10-01T00:36:00.358Z,7.82
2022-10-01T00:38:30.486Z,7.80
2022-10-01T00:40:58.336Z,7.80
2022-10-01T00:43:37.363Z,7.76
2022-10-01T00:46:23.017Z,7.72
2022-10-01T00:49:01.070Z,7.69
2022-10-01T00:51:35.538Z,7.67
2022-10-01T00:54:22.303Z,7.64
2022-10-01T00:56:56.116Z,7.61
2022-10-01T00:59:27.513Z,7.57
2022-10-01T01:01:58.882Z,7.55
2022-10-01T01:04:28.817Z,7.54
2022-10-01T01:07:02.784Z,7.53
2022-10-01T01:09:37.058Z,7.50
2022-10-01T01:12:29.876Z,7.48
2022-10-01T01:15:15.706Z,7.46
2022-10-01T01:18:33.278Z,7.45
2022-10-01T01:21:30.164Z,7.43
2022-10-01T01:24:41.092Z,7.41
2022-10-01T01:27:48.748Z,7.39
2022-10-01T01:30:17.854Z,7.36
2022-10-01T01:33:17.966Z,7.31
2022-10-01T01:35:54.110Z,7.25
2022-10-01T01:38:40.531Z,7.20
2022-10-01T01:41:19.667Z,7.17
2022-10-01T01:44:06.556Z,7.16
2022-10-01T01:46:39.259Z,7.16
2022-10-01T01:49:07.556Z,7.15
2022-10-01T01:52:15.868Z,7.15
2022-10-01T01:54:49.262Z,7.16
2022-10-01T01:57:18.031Z,7.16
2022-10-01T01:59:48.241Z,7.15
2022-10-01T02:02:27.075Z,7.15
2022-10-01T02:05:06.118Z,7.16
2022-10-01T02:08:06.339Z,7.16
2022-10-01T02:10:55.803Z,7.13
2022-10-01T02:13:44.457Z,7.09
2022-10-01T02:16:22.187Z,7.04
2022-10-01T02:19:19.227Z,6.98
2022-10-01T02:22:03.066Z,6.93
2022-10-01T02:24:40.851Z,6.91
2022-10-01T02:27:20.193Z,6.90
2022-10-01T02:29:58.887Z,6.87
2022-10-01T02:32:29.876Z,6.86
2022-10-01T02:34:59.039Z,6.86
2022-10-01T02:37:29.857Z,6.84
2022-10-01T02:39:59.706Z,6.82
2022-10-01T02:42:28.718Z,6.82
2022-10-01T02:45:02.020Z,6.80
2022-10-01T02:47:44.105Z,6.78
2022-10-01T02:50:16.635Z,6.75
2022-10-01T02:52:58.571Z,6.73
2022-10-01T02:55:39.430Z,6.72
2022-10-01T02:58:08.006Z,6.71
2022-10-01T03:00:37.293Z,6.69
2022-10-01T03:03:05.987Z,6.69
2022-10-01T03:05:33.133Z,6.69
2022-10-01T03:08:10.622Z,6.71
2022-10-01T03:10:39.177Z,6.74
2022-10-01T03:13:10.868Z,6.75
2022-10-01T03:15:38.272Z,6.76
2022-10-01T03:18:05.516Z,6.76
2022-10-01T03:20:38.045Z,6.74
2022-10-01T03:23:06.216Z,6.72
2022-10-01T03:25:33.021Z,6.73
2022-10-01T03:28:05.070Z,6.73
2022-10-01T03:30:35.813Z,6.72
2022-10-01T03:33:08.205Z,6.72
2022-10-01T03:35:38.339Z,6.73
2022-10-01T03:38:06.930Z,6.75
2022-10-01T03:40:40.315Z,6.76
2022-10-01T03:43:07.331Z,6.78
2022-10-01T03:45:38.867Z,6.81
2022-10-01T03:48:06.126Z,6.84
2022-10-01T03:50:36.314Z,6.87
2022-10-01T03:53:03.105Z,6.90
2022-10-01T03:55:31.001Z,6.92
2022-10-01T03:58:03.846Z,6.92
2022-10-01T04:00:31.200Z,6.93
2022-10-01T04:02:58.459Z,6.95
2022-10-01T04:05:27.555Z,6.95
2022-10-01T04:07:59.381Z,6.94
2022-10-01T04:10:26.667Z,6.92
2022-10-01T04:12:55.445Z,6.89
2022-10-01T04:15:23.940Z,6.90
2022-10-01T04:17:57.671Z,6.91
2022-10-01T04:20:28.963Z,6.93
2022-10-01T04:22:58.279Z,6.98
2022-10-01T04:25:28.690Z,7.04
2022-10-01T04:28:01.823Z,7.09
2022-10-01T04:30:35.996Z,7.12
2022-10-01T04:33:06.636Z,7.15
2022-10-01T04:35:33.941Z,7.17
2022-10-01T04:38:07.137Z,7.18
2022-10-01T04:40:35.907Z,7.16
2022-10-01T04:43:07.284Z,7.17
2022-10-01T04:45:38.034Z,7.14
2022-10-01T04:48:05.206Z,7.13
2022-10-01T04:50:32.743Z,7.13
2022-10-01T04:53:04.309Z,7.14
2022-10-01T04:55:31.709Z,7.16
2022-10-01T04:57:58.564Z,7.16
2022-10-01T05:00:26.072Z,7.18
2022-10-01T05:02:54.133Z,7.19
2022-10-01T05:05:27.637Z,7.20
2022-10-01T05:07:57.945Z,7.22
2022-10-01T05:10:25.763Z,7.23
2022-10-01T05:12:57.625Z,7.24
2022-10-01T05:15:27.353Z,7.23
2022-10-01T05:17:54.974Z,7.21
2022-10-01T05:20:26.965Z,7.18
2022-10-01T05:22:55.957Z,7.14
2022-10-01T05:25:23.319Z,7.11
2022-10-01T05:27:58.064Z,7.08
2022-10-01T05:30:25.437Z,7.06
2022-10-01T05:32:57.378Z,7.06
2022-10-01T05:35:28.491Z,7.05
2022-10-01T05:37:57.336Z,7.05
2022-10-01T05:40:28.523Z,7.07
2022-10-01T05:42:57.906Z,7.09
2022-10-01T05:45:30.745Z,7.15
2022-10-01T05:48:06.168Z,7.25
2022-10-01T05:50:38.751Z,7.30
2022-10-01T05:53:08.036Z,7.34
2022-10-01T05:55:36.965Z,7.37
2022-10-01T05:58:06.545Z,7.39
2022-10-01T06:00:35.444Z,7.41
2022-10-01T06:03:14.828Z,7.43
2022-10-01T06:05:44.343Z,7.47
2022-10-01T06:08:11.655Z,7.50
2022-10-01T06:10:42.186Z,7.55
2022-10-01T06:13:09.247Z,7.59
2022-10-01T06:15:38.512Z,7.63
2022-10-01T06:18:10.654Z,7.67
2022-10-01T06:20:42.673Z,7.74
2022-10-01T06:23:13.259Z,7.79
2022-10-01T06:25:42.324Z,7.88
2022-10-01T06:28:12.191Z,8.00
2022-10-01T06:30:39.861Z,8.13
2022-10-01T06:33:16.703Z,8.27
2022-10-01T06:35:49.639Z,8.39
2022-10-01T06:38:20.842Z,8.52
2022-10-01T06:40:52.390Z,8.61
2022-10-01T06:43:19.517Z,8.69
2022-10-01T06:45:47.420Z,8.77
2022-10-01T06:48:16.391Z,8.89
2022-10-01T06:50:46.396Z,8.98
2022-10-01T06:53:15.541Z,8.99
2022-10-01T06:55:42.897Z,8.90
2022-10-01T06:58:17.910Z,8.83
2022-10-01T07:00:45.441Z,8.81
2022-10-01T07:03:21.448Z,8.85
2022-10-01T07:06:04.135Z,8.89
2022-10-01T07:08:32.845Z,8.87
2022-10-01T07:11:02.063Z,8.86
2022-10-01T07:13:29.413Z,8.87
2022-10-01T07:15:56.727Z,8.79
2022-10-01T07:18:23.763Z,8.76
2022-10-01T07:20:56.917Z,8.78
2022-10-01T07:23:31.623Z,8.80
2022-10-01T07:26:05.451Z,8.85
2022-10-01T07:28:32.875Z,8.96
2022-10-01T07:31:02.359Z,9.15
2022-10-01T07:33:35.542Z,9.33
2022-10-01T07:36:05.448Z,9.62
2022-10-01T07:38:35.646Z,9.87
2022-10-01T07:41:05.344Z,9.88
2022-10-01T07:43:34.422Z,9.87
2022-10-01T07:46:04.628Z,9.89
2022-10-01T07:48:32.001Z,9.89
2022-10-01T07:50:59.214Z,9.97
2022-10-01T07:53:27.268Z,10.04
2022-10-01T07:55:57.591Z,10.12
2022-10-01T07:58:25.052Z,10.13
2022-10-01T08:00:57.798Z,10.13
2022-10-01T08:03:25.345Z,10.13
2022-10-01T08:05:55.134Z,10.20
2022-10-01T08:08:22.841Z,10.25
2022-10-01T08:10:52.922Z,10.28
2022-10-01T08:13:26.173Z,10.31
2022-10-01T08:15:54.447Z,10.40
2022-10-01T08:18:24.337Z,10.50
2022-10-01T08:20:52.218Z,10.57
2022-10-01T08:23:19.353Z,10.65
2022-10-01T08:25:49.512Z,10.75
2022-10-01T08:28:16.867Z,10.81
2022-10-01T08:30:44.927Z,10.87
2022-10-01T08:33:16.285Z,10.90
2022-10-01T08:35:44.025Z,10.92
2022-10-01T08:38:12.334Z,10.96
2022-10-01T08:40:49.240Z,10.98
2022-10-01T08:43:38.179Z,11.04
2022-10-01T08:46:15.672Z,11.07
2022-10-01T08:49:04.277Z,11.04
2022-10-01T08:51:38.135Z,11.10
2022-10-01T08:54:17.771Z,11.24
2022-10-01T08:56:47.530Z,11.32
2022-10-01T08:59:33.249Z,11.32
2022-10-01T09:02:00.483Z,11.36
2022-10-01T09:04:28.948Z,11.42
2022-10-01T09:07:15.807Z,11.48
2022-10-01T09:10:03.794Z,11.61
2022-10-01T09:12:51.977Z,11.68
2022-10-01T09:15:22.135Z,11.67
2022-10-01T09:18:26.343Z,11.65
2022-10-01T09:21:20.402Z,11.63
2022-10-01T09:24:10.455Z,11.62
2022-10-01T09:26:43.461Z,11.64
2022-10-01T09:29:22.431Z,11.66
2022-10-01T09:31:51.747Z,11.68
2022-10-01T09:34:36.039Z,11.71
2022-10-01T09:37:15.425Z,11.73
2022-10-01T09:40:07.847Z,11.75
2022-10-01T09:42:35.554Z,11.78
2022-10-01T09:45:05.818Z,11.85
2022-10-01T09:47:36.571Z,11.94
2022-10-01T09:50:06.032Z,11.98
2022-10-01T09:52:35.469Z,12.04
2022-10-01T09:55:11.681Z,12.11
2022-10-01T09:57:57.221Z,12.19
2022-10-01T10:00:26.683Z,12.23
2022-10-01T10:02:56.145Z,12.25
2022-10-01T10:05:30.047Z,12.29
2022-10-01T10:08:06.273Z,12.37
2022-10-01T10:10:36.461Z,12.41
2022-10-01T10:13:13.498Z,12.48
2022-10-01T10:15:49.603Z,12.56
2022-10-01T10:18:35.008Z,12.58
2022-10-01T10:21:14.031Z,12.62
2022-10-01T10:23:53.463Z,12.61
2022-10-01T10:26:38.292Z,12.66
2022-10-01T10:29:23.957Z,12.68
2022-10-01T10:31:53.185Z,12.73
2022-10-01T10:34:37.917Z,12.76
2022-10-01T10:37:18.036Z,12.77
2022-10-01T10:39:54.345Z,12.78
2022-10-01T10:42:25.555Z,12.81
2022-10-01T10:44:56.812Z,12.82
2022-10-01T10:47:46.380Z,12.83
2022-10-01T10:50:29.567Z,12.83
2022-10-01T10:53:27.095Z,12.82
2022-10-01T10:56:06.718Z,12.83
2022-10-01T10:58:42.273Z,12.84
2022-10-01T11:01:34.838Z,12.82
2022-10-01T11:04:03.788Z,12.83
2022-10-01T11:06:31.207Z,12.87
2022-10-01T11:09:06.987Z,12.88
2022-10-01T11:12:00.564Z,12.90
2022-10-01T11:14:49.654Z,12.91
2022-10-01T11:17:48.832Z,12.96
2022-10-01T11:20:49.708Z,13.01
2022-10-01T11:23:55.811Z,13.05
2022-10-01T11:27:10.110Z,13.18
2022-10-01T11:30:03.887Z,13.30
2022-10-01T11:33:03.767Z,13.37
2022-10-01T11:35:56.169Z,13.43
2022-10-01T11:39:11.120Z,13.46
2022-10-01T11:42:03.784Z,13.52
2022-10-01T11:44:48.879Z,13.55
2022-10-01T11:47:43.763Z,13.52
2022-10-01T11:50:22.877Z,13.49
2022-10-01T11:53:15.280Z,13.55
2022-10-01T11:56:07.198Z,13.57
2022-10-01T11:58:52.595Z,13.54
2022-10-01T12:01:49.791Z,13.55
2022-10-01T12:04:29.249Z,13.53
2022-10-01T12:07:30.391Z,13.52
2022-10-01T12:10:22.023Z,13.48
2022-10-01T12:13:19.359Z,13.40
2022-10-01T12:16:08.347Z,13.16
2022-10-01T12:19:03.328Z,12.94
2022-10-01T12:21:39.726Z,12.77
2022-10-01T12:24:24.305Z,12.63
2022-10-01T12:27:06.748Z,12.56
2022-10-01T12:29:39.899Z,12.47
2022-10-01T12:32:35.135Z,12.41
2022-10-01T12:35:25.548Z,12.28
2022-10-01T12:37:55.322Z,12.21
2022-10-01T12:40:46.657Z,12.13
2022-10-01T12:43:39.795Z,12.01
2022-10-01T12:46:19.612Z,11.87
2022-10-01T12:49:08.377Z,11.78
2022-10-01T12:51:38.630Z,11.69
2022-10-01T12:54:29.784Z,11.62
2022-10-01T12:57:25.040Z,11.53
2022-10-01T13:00:21.542Z,11.43
2022-10-01T13:03:19.688Z,11.31
2022-10-01T13:05:49.497Z,11.20
2022-10-01T13:08:16.478Z,11.09
2022-10-01T13:10:56.792Z,11.06
2022-10-01T13:13:49.297Z,11.04
2022-10-01T13:16:44.230Z,10.96
2022-10-01T13:19:37.069Z,10.88
2022-10-01T13:22:27.330Z,10.84
2022-10-01T13:25:08.288Z,10.81
2022-10-01T13:27:38.993Z,10.78
2022-10-01T13:30:27.569Z,10.71
2022-10-01T13:33:01.878Z,10.64
2022-10-01T13:35:35.791Z,10.60
2022-10-01T13:38:28.742Z,10.55
2022-10-01T13:41:14.851Z,10.56
2022-10-01T13:43:58.859Z,10.54
2022-10-01T13:46:35.442Z,10.50
2022-10-01T13:49:21.052Z,10.47
2022-10-01T13:51:48.279Z,10.45
2022-10-01T13:54:27.933Z,10.46
2022-10-01T13:56:55.327Z,10.43
2022-10-01T13:59:32.129Z,10.42
2022-10-01T14:02:00.073Z,10.37
2022-10-01T14:04:37.254Z,10.35
2022-10-01T14:07:11.971Z,10.37
2022-10-01T14:09:50.188Z,10.37
2022-10-01T14:12:55.999Z,10.35
2022-10-01T14:15:40.004Z,10.32
2022-10-01T14:18:21.146Z,10.26
2022-10-01T14:21:05.582Z,10.25
2022-10-01T14:24:02.497Z,10.24
2022-10-01T14:26:58.128Z,10.24
2022-10-01T14:30:04.914Z,10.23
2022-10-01T14:33:05.975Z,10.21
2022-10-01T14:35:49.627Z,10.22
2022-10-01T14:38:23.027Z,10.23
2022-10-01T14:40:51.448Z,10.25
2022-10-01T14:43:27.406Z,10.28
2022-10-01T14:45:59.012Z,10.28
2022-10-01T14:48:31.619Z,10.29
2022-10-01T14:51:06.114Z,10.28
2022-10-01T14:53:45.729Z,10.28
2022-10-01T14:56:25.021Z,10.26
2022-10-01T14:59:02.424Z,10.28
2022-10-01T15:01:32.466Z,10.28
2022-10-01T15:04:02.493Z,10.26
2022-10-01T15:06:40.949Z,10.23
2022-10-01T15:09:16.596Z,10.18
2022-10-01T15:11:49.797Z,10.15
2022-10-01T15:14:28.754Z,10.13
2022-10-01T15:16:56.074Z,10.12
2022-10-01T15:19:23.946Z,10.13
2022-10-01T15:21:57.422Z,10.15
2022-10-01T15:24:43.858Z,10.16
2022-10-01T15:27:14.329Z,10.17
2022-10-01T15:29:45.557Z,10.18
2022-10-01T15:32:16.642Z,10.15
2022-10-01T15:34:51.350Z,10.09
2022-10-01T15:37:31.315Z,10.05
2022-10-01T15:40:00.237Z,10.04
2022-10-01T15:42:32.518Z,10.04
2022-10-01T15:45:09.240Z,10.02
2022-10-01T15:47:41.050Z,10.00
2022-10-01T15:50:10.612Z,10.01
2022-10-01T15:52:57.662Z,10.02
2022-10-01T15:55:54.106Z,10.03
2022-10-01T15:58:22.189Z,10.02
2022-10-01T16:01:23.146Z,10.01
2022-10-01T16:04:06.152Z,10.00
2022-10-01T16:06:45.198Z,9.98
2022-10-01T16:09:39.326Z,9.97
2022-10-01T16:12:13.134Z,9.96
2022-10-01T16:14:56.914Z,9.95
2022-10-01T16:17:30.538Z,9.94
2022-10-01T16:20:01.059Z,9.93
2022-10-01T16:22:33.059Z,9.91
2022-10-01T16:25:06.696Z,9.88
2022-10-01T16:27:35.226Z,9.81
2022-10-01T16:30:12.035Z,9.78
2022-10-01T16:32:39.707Z,9.75
2022-10-01T16:35:17.144Z,9.72
2022-10-01T16:37:47.265Z,9.68
2022-10-01T16:40:16.413Z,9.65
2022-10-01T16:42:45.902Z,9.63
2022-10-01T16:45:24.893Z,9.60
2022-10-01T16:47:53.702Z,9.58
2022-10-01T16:50:22.184Z,9.57
2022-10-01T16:52:56.079Z,9.56
2022-10-01T16:55:30.178Z,9.56
2022-10-01T16:57:57.779Z,9.56
2022-10-01T17:00:27.467Z,9.56
2022-10-01T17:02:58.015Z,9.56
2022-10-01T17:05:32.688Z,9.57
2022-10-01T17:08:04.570Z,9.57
2022-10-01T17:10:36.511Z,9.56
2022-10-01T17:13:06.758Z,9.56
2022-10-01T17:15:33.933Z,9.58
2022-10-01T17:18:08.687Z,9.61
2022-10-01T17:20:39.302Z,9.60
2022-10-01T17:23:06.642Z,9.60
2022-10-01T17:25:38.056Z,9.59
2022-10-01T17:28:08.524Z,9.58
2022-10-01T17:30:40.103Z,9.58
2022-10-01T17:33:08.742Z,9.58
2022-10-01T17:35:42.420Z,9.57
2022-10-01T17:38:10.545Z,9.56
2022-10-01T17:40:45.043Z,9.54
2022-10-01T17:43:14.771Z,9.54
2022-10-01T17:45:42.964Z,9.55
2022-10-01T17:48:10.288Z,9.55
2022-10-01T17:50:43.025Z,9.55
2022-10-01T17:53:15.203Z,9.54
2022-10-01T17:55:42.441Z,9.53
2022-10-01T17:58:09.907Z,9.54
2022-10-01T18:00:40.523Z,9.53
2022-10-01T18:03:07.797Z,9.53
2022-10-01T18:05:35.016Z,9.52
2022-10-01T18:08:02.362Z,9.52
2022-10-01T18:10:30.520Z,9.51
2022-10-01T18:13:01.751Z,9.51
2022-10-01T18:15:29.069Z,9.52
2022-10-01T18:18:58.730Z,9.51
2022-10-01T18:20:44.066Z,9.49
2022-10-01T18:23:14.191Z,9.46
2022-10-01T18:25:41.643Z,9.45
2022-10-01T18:28:08.673Z,9.44
2022-10-01T18:30:42.303Z,9.45
2022-10-01T18:33:14.125Z,9.46
2022-10-01T18:35:44.698Z,9.47
2022-10-01T18:38:23.955Z,9.48
2022-10-01T18:40:59.993Z,9.50
2022-10-01T18:43:34.310Z,9.52
2022-10-01T18:46:48.513Z,9.53
2022-10-01T18:49:52.187Z,9.54
2022-10-01T18:52:39.484Z,9.53
2022-10-01T18:55:34.636Z,9.52
2022-10-01T18:58:32.797Z,9.51
2022-10-01T19:01:40.234Z,9.50
2022-10-01T19:04:49.132Z,9.48
2022-10-01T19:07:31.547Z,9.46
2022-10-01T19:10:11.913Z,9.46
2022-10-01T19:12:57.422Z,9.45
2022-10-01T19:16:04.732Z,9.44
2022-10-01T19:18:51.948Z,9.42
2022-10-01T19:21:51.019Z,9.40
2022-10-01T19:24:36.857Z,9.38
2022-10-01T19:27:33.934Z,9.36
2022-10-01T19:30:15.249Z,9.32
2022-10-01T19:33:07.353Z,9.30
2022-10-01T19:35:43.649Z,9.29
2022-10-01T19:38:16.760Z,9.29
2022-10-01T19:41:01.251Z,9.29
2022-10-01T19:43:57.051Z,9.29
2022-10-01T19:46:43.331Z,9.28
2022-10-01T19:49:34.841Z,9.28
2022-10-01T19:52:31.245Z,9.28
2022-10-01T19:55:00.309Z,9.28
2022-10-01T19:57:34.494Z,9.26
2022-10-01T20:00:10.151Z,9.27
2022-10-01T20:02:46.762Z,9.27
2022-10-01T20:05:24.704Z,9.27
2022-10-01T20:08:00.197Z,9.28
2022-10-01T20:11:10.945Z,9.28
2022-10-01T20:13:57.893Z,9.31
2022-10-01T20:16:40.348Z,9.34
2022-10-01T20:19:30.765Z,9.38
2022-10-01T20:22:06.817Z,9.41
2022-10-01T20:25:07.195Z,9.43
2022-10-01T20:27:47.075Z,9.46
2022-10-01T20:30:23.497Z,9.48
2022-10-01T20:33:29.194Z,9.49
2022-10-01T20:36:31.705Z,9.51
2022-10-01T20:39:05.327Z,9.52
2022-10-01T20:41:46.032Z,9.52
2022-10-01T20:44:21.301Z,9.53
2022-10-01T20:46:54.617Z,9.54
2022-10-01T20:49:27.577Z,9.55
2022-10-01T20:52:24.005Z,9.55
2022-10-01T20:55:00.061Z,9.54
2022-10-01T20:57:49.867Z,9.54
2022-10-01T21:00:23.427Z,9.53
2022-10-01T21:03:01.445Z,9.51
2022-10-01T21:05:40.745Z,9.51
2022-10-01T21:08:36.931Z,9.50
2022-10-01T21:11:11.220Z,9.51
2022-10-01T21:13:58.454Z,9.52
2022-10-01T21:16:38.131Z,9.54
2022-10-01T21:19:17.906Z,9.57
2022-10-01T21:22:08.255Z,9.58
2022-10-01T21:25:06.169Z,9.60
2022-10-01T21:27:58.027Z,9.64
2022-10-01T21:30:29.396Z,9.69
2022-10-01T21:33:13.807Z,9.73
2022-10-01T21:35:52.300Z,9.77
2022-10-01T21:38:55.666Z,9.81
2022-10-01T21:41:43.282Z,9.87
2022-10-01T21:44:33.409Z,9.91
2022-10-01T21:47:22.596Z,9.95
2022-10-01T21:50:05.005Z,9.99
2022-10-01T21:52:35.116Z,10.02
2022-10-01T21:55:20.456Z,10.02
2022-10-01T21:57:57.954Z,10.03
2022-10-01T22:00:28.425Z,10.04
2022-10-01T22:03:13.092Z,10.05
2022-10-01T22:06:11.709Z,10.07
2022-10-01T22:09:18.350Z,10.08
2022-10-01T22:11:48.873Z,10.06
2022-10-01T22:14:21.303Z,10.05
2022-10-01T22:17:05.251Z,10.04
2022-10-01T22:19:38.093Z,10.04
2022-10-01T22:22:10.603Z,10.03
2022-10-01T22:24:46.021Z,10.03
2022-10-01T22:27:34.815Z,10.03
2022-10-01T22:30:10.065Z,10.02
2022-10-01T22:32:49.570Z,10.03
2022-10-01T22:35:30.804Z,10.03
2022-10-01T22:38:31.313Z,10.02
2022-10-01T22:41:03.660Z,10.01
2022-10-01T22:43:31.757Z,10.04
2022-10-01T22:46:39.802Z,10.06
2022-10-01T22:49:37.624Z,10.07
2022-10-01T22:52:20.334Z,10.06
2022-10-01T22:55:04.887Z,10.05
2022-10-01T22:57:40.784Z,10.04
2022-10-01T23:00:23.794Z,10.04
2022-10-01T23:03:12.670Z,10.04
2022-10-01T23:06:24.477Z,10.03
2022-10-01T23:09:17.077Z,10.04
2022-10-01T23:11:46.851Z,10.06
2022-10-01T23:14:25.542Z,10.06
2022-10-01T23:17:04.373Z,10.07
2022-10-01T23:19:32.356Z,10.10
2022-10-01T23:22:15.644Z,10.12
2022-10-01T23:25:10.255Z,10.14
2022-10-01T23:28:08.331Z,10.16
2022-10-01T23:30:59.064Z,10.16
2022-10-01T23:33:52.102Z,10.17
2022-10-01T23:36:52.117Z,10.19
2022-10-01T23:39:41.119Z,10.17
2022-10-01T23:42:19.826Z,10.16
2022-10-01T23:45:13.921Z,10.17
2022-10-01T23:47:52.785Z,10.17
2022-10-01T23:50:36.075Z,10.16
2022-10-01T23:53:12.064Z,10.15
2022-10-01T23:56:04.854Z,10.14
2022-10-01T23:58:51.050Z,10.15
